Time;durP1;ratioP1;P1;durP2;ratioP2;P2;SDS_P1;SDS_P2;PMS_P1;PMS_P2;Temp;Humidity;BMP_temperature;BMP_pressure;BME280_temperature;BME280_humidity;BME280_pressure;Samples;Min_cycle;Max_cycle;Signal;HPM_P1;HPM_P2
2023/07/30 00:01:06;;;;;;;22.83;13.23;;;;;;;-144.73;100.00;54510.31;4979706;28;20047;-73
2023/07/30 00:03:32;;;;;;;18.48;12.57;;;;;;;-144.73;100.00;54500.06;4951675;28;20031;-74
2023/07/30 00:05:57;;;;;;;17.27;12.88;;;;;;;-144.73;100.00;54545.22;4940580;28;20039;-73
2023/07/30 00:08:23;;;;;;;21.85;13.65;;;;;;;-144.73;100.00;54506.22;4977404;28;20025;-74
2023/07/30 00:10:49;;;;;;;27.48;14.65;;;;;;;-144.73;100.00;54502.13;4939762;28;20023;-74
2023/07/30 00:13:14;;;;;;;20.60;12.57;;;;;;;-144.73;100.00;54522.63;4940432;28;20023;-74
2023/07/30 00:15:40;;;;;;;26.38;15.23;;;;;;;-144.73;100.00;54526.75;4995087;28;20027;-75
2023/07/30 00:18:05;;;;;;;23.63;13.63;;;;;;;-144.73;100.00;54539.06;5006746;28;20020;-74
2023/07/30 00:20:31;;;;;;;24.67;14.40;;;;;;;-144.73;100.00;54512.38;4941186;28;20023;-74
2023/07/30 00:22:56;;;;;;;18.73;13.25;;;;;;;-144.73;100.00;54508.28;4975640;28;20125;-74
2023/07/30 00:25:22;;;;;;;23.08;15.25;;;;;;;-144.73;100.00;54506.22;4940390;28;20110;-74
2023/07/30 00:27:47;;;;;;;22.17;12.95;;;;;;;-144.73;100.00;54539.06;4973831;28;20132;-74
2023/07/30 00:30:12;;;;;;;22.73;12.30;;;;;;;-144.73;100.00;54502.13;5033481;28;20027;-74
2023/07/30 00:32:43;;;;;;;19.15;11.68;;;;;;;-144.73;100.00;54539.06;4950625;28;20050;-74
2023/07/30 00:35:08;;;;;;;23.70;14.27;;;;;;;-144.73;100.00;54551.38;4950791;28;20023;-74
2023/07/30 00:37:34;;;;;;;21.25;12.10;;;;;;;-144.73;100.00;54549.31;4940139;28;20035;-74
2023/07/30 00:39:59;;;;;;;22.15;11.82;;;;;;;-144.73;100.00;54567.81;4968384;28;20098;-74
2023/07/30 00:42:24;;;;;;;21.27;11.48;;;;;;;-144.73;100.00;54539.06;4951514;28;20123;-75
2023/07/30 00:44:50;;;;;;;19.70;12.45;;;;;;;-144.73;100.00;54547.28;4933946;28;20019;-74
2023/07/30 00:47:15;;;;;;;17.70;10.65;;;;;;;-144.73;100.00;54539.06;4965436;28;20055;-74
2023/07/30 00:49:40;;;;;;;15.30;10.60;;;;;;;-144.73;100.00;54539.06;5002407;28;20092;-74
2023/07/30 00:52:06;;;;;;;26.45;12.43;;;;;;;-144.73;100.00;54526.75;4981985;28;20031;-73
2023/07/30 00:54:32;;;;;;;22.15;13.38;;;;;;;-144.73;100.00;54551.38;4988780;28;20013;-74
2023/07/30 00:56:58;;;;;;;24.20;12.98;;;;;;;-144.73;100.00;54539.06;4987597;28;20048;-74
2023/07/30 00:59:23;;;;;;;32.13;17.08;;;;;;;-144.73;100.00;54483.66;4945103;28;20173;-74
2023/07/30 01:01:51;;;;;;;25.38;13.50;;;;;;;-144.73;100.00;54512.38;5049516;28;20052;-74
2023/07/30 01:04:17;;;;;;;20.42;14.05;;;;;;;-144.73;100.00;54522.63;5001704;28;20025;-74
2023/07/30 01:06:43;;;;;;;25.35;14.27;;;;;;;-144.73;100.00;54565.75;4997763;28;20045;-74
2023/07/30 01:09:08;;;;;;;25.25;13.77;;;;;;;-144.73;100.00;54549.31;4974588;28;20031;-74
2023/07/30 01:11:36;;;;;;;23.15;12.32;;;;;;;-144.73;100.00;54580.13;4938732;28;20111;-75
2023/07/30 01:14:01;;;;;;;17.85;12.45;;;;;;;-144.73;100.00;54502.13;4947216;28;20027;-74
2023/07/30 01:16:27;;;;;;;24.23;12.95;;;;;;;-144.73;100.00;54530.84;4932208;28;20114;-73
2023/07/30 01:18:52;;;;;;;23.45;14.52;;;;;;;-144.73;100.00;54506.22;4963306;28;20019;-73
2023/07/30 01:21:18;;;;;;;15.15;10.82;;;;;;;-144.73;100.00;54604.75;4979883;28;20110;-74
2023/07/30 01:23:43;;;;;;;25.20;12.85;;;;;;;-144.73;100.00;54518.53;5049705;28;20021;-74
2023/07/30 01:26:12;;;;;;;22.23;13.10;;;;;;;-144.73;100.00;54514.44;5010626;28;20041;-74
2023/07/30 01:28:47;;;;;;;20.25;10.45;;;;;;;-144.73;100.00;54524.69;4967499;28;20024;-74
2023/07/30 01:31:16;;;;;;;18.17;10.95;;;;;;;-144.73;100.00;54539.06;4987641;28;20039;-74
2023/07/30 01:33:46;;;;;;;22.15;12.95;;;;;;;-144.73;100.00;54547.28;4962917;28;20024;-74
2023/07/30 01:36:16;;;;;;;19.65;11.00;;;;;;;-144.73;100.00;54555.47;4992689;28;20041;-74
2023/07/30 01:38:42;;;;;;;17.77;11.05;;;;;;;-144.73;100.00;54553.44;4958419;28;20021;-74
2023/07/30 01:41:08;;;;;;;21.63;11.80;;;;;;;-144.73;100.00;54567.81;5001585;28;20037;-74
2023/07/30 01:43:33;;;;;;;15.15;10.38;;;;;;;-144.73;100.00;54551.38;4983610;28;20124;-75
2023/07/30 01:45:59;;;;;;;24.58;12.27;;;;;;;-144.73;100.00;54506.22;5033688;28;20106;-75
2023/07/30 01:48:24;;;;;;;22.95;12.77;;;;;;;-144.73;100.00;54576.00;5032772;28;20085;-73
2023/07/30 01:50:49;;;;;;;20.60;12.98;;;;;;;-144.73;100.00;54543.16;4942414;28;20040;-73
2023/07/30 01:53:15;;;;;;;15.82;10.73;;;;;;;-144.73;100.00;54555.47;4949230;28;20020;-74
2023/07/30 01:55:43;;;;;;;16.85;10.73;;;;;;;-144.73;100.00;54530.84;5048464;28;20043;-74
2023/07/30 01:58:09;;;;;;;41.22;22.25;;;;;;;-144.73;100.00;54576.00;4979632;28;20049;-73
2023/07/30 02:00:35;;;;;;;81.85;43.35;;;;;;;-144.73;100.00;54539.06;4972874;28;20029;-73
2023/07/30 02:03:00;;;;;;;64.82;36.70;;;;;;;-144.73;100.00;54543.16;4936112;28;20019;-73
2023/07/30 02:05:26;;;;;;;53.83;30.67;;;;;;;-144.73;100.00;54563.69;4976634;28;20023;-73
2023/07/30 02:07:51;;;;;;;49.17;24.33;;;;;;;-144.73;100.00;54571.91;4943409;28;20081;-73
2023/07/30 02:10:16;;;;;;;27.00;16.98;;;;;;;-144.73;100.00;54588.31;4946763;28;20445;-73
2023/07/30 02:12:42;;;;;;;27.10;16.35;;;;;;;-144.73;100.00;54576.00;4997461;28;20033;-75
2023/07/30 02:15:08;;;;;;;29.33;17.38;;;;;;;-144.73;100.00;54514.44;4993733;28;20031;-73
2023/07/30 02:17:33;;;;;;;23.25;15.02;;;;;;;-144.73;100.00;54522.63;4968103;28;20058;-73
2023/07/30 02:19:58;;;;;;;31.40;18.20;;;;;;;-144.73;100.00;54559.59;4966543;28;20026;-74
2023/07/30 02:22:24;;;;;;;24.50;15.43;;;;;;;-144.73;100.00;54576.00;4945825;28;20535;-74
2023/07/30 02:24:49;;;;;;;24.85;14.50;;;;;;;-144.73;100.00;54530.84;4959964;28;20013;-73
2023/07/30 02:27:14;;;;;;;27.95;14.45;;;;;;;-144.73;100.00;54551.38;5035508;28;20124;-73
2023/07/30 02:29:40;;;;;;;28.00;15.73;;;;;;;-144.73;100.00;54530.84;4948493;28;20521;-74
2023/07/30 02:32:05;;;;;;;28.70;14.88;;;;;;;-144.73;100.00;54543.16;4948202;28;20463;-73
2023/07/30 02:34:31;;;;;;;23.20;14.32;;;;;;;-144.73;100.00;54539.06;5042082;28;20032;-74
2023/07/30 02:36:56;;;;;;;35.50;16.38;;;;;;;-144.73;100.00;54528.81;4935855;28;20425;-73
2023/07/30 02:39:22;;;;;;;25.70;14.93;;;;;;;-144.73;100.00;54541.13;4949796;28;20050;-73
2023/07/30 02:41:47;;;;;;;34.05;18.30;;;;;;;-144.73;100.00;54547.28;4976197;28;20153;-74
2023/07/30 02:44:12;;;;;;;19.63;13.57;;;;;;;-144.73;100.00;54576.00;4939911;28;20066;-73
2023/07/30 02:46:38;;;;;;;28.48;16.30;;;;;;;-144.73;100.00;54559.59;4949240;28;20029;-73
2023/07/30 02:49:03;;;;;;;21.80;14.43;;;;;;;-144.73;100.00;54530.84;5001472;28;20020;-74
2023/07/30 02:51:28;;;;;;;26.75;15.55;;;;;;;-144.73;100.00;54557.53;4983946;28;20447;-74
2023/07/30 02:53:59;;;;;;;23.83;14.23;;;;;;;-144.73;100.00;54541.13;4981934;28;20009;-73
2023/07/30 02:56:24;;;;;;;28.33;15.07;;;;;;;-144.73;100.00;54539.06;4951881;28;20046;-73
2023/07/30 02:58:50;;;;;;;24.08;15.07;;;;;;;-144.73;100.00;54555.47;4953921;28;20041;-73
2023/07/30 03:01:16;;;;;;;24.35;14.77;;;;;;;-144.73;100.00;54547.28;4954535;28;20031;-73
2023/07/30 03:03:41;;;;;;;21.45;14.35;;;;;;;-144.73;100.00;54563.69;4934808;28;20076;-73
2023/07/30 03:06:06;;;;;;;26.02;14.70;;;;;;;-144.73;100.00;54576.00;4957378;28;20104;-73
2023/07/30 03:08:32;;;;;;;23.85;16.45;;;;;;;-144.73;100.00;54539.06;4935094;28;20027;-73
2023/07/30 03:10:59;;;;;;;25.60;16.67;;;;;;;-144.73;100.00;54543.16;4952824;28;20035;-73
2023/07/30 03:13:25;;;;;;;29.45;15.75;;;;;;;-144.73;100.00;54555.47;4994953;28;20057;-74
2023/07/30 03:15:50;;;;;;;25.10;15.82;;;;;;;-144.73;100.00;54563.69;4955060;28;20065;-73
2023/07/30 03:18:15;;;;;;;23.92;15.32;;;;;;;-144.73;100.00;54555.47;4957315;28;20409;-74
2023/07/30 03:20:41;;;;;;;25.30;15.68;;;;;;;-144.73;100.00;54588.31;4948252;28;20023;-73
2023/07/30 03:23:06;;;;;;;24.80;15.05;;;;;;;-144.73;100.00;54510.31;4946375;28;20022;-74
2023/07/30 03:25:31;;;;;;;30.05;15.00;;;;;;;-144.73;100.00;54576.00;4966892;28;20039;-73
2023/07/30 03:27:57;;;;;;;24.40;16.63;;;;;;;-144.73;100.00;54547.28;4952605;28;20027;-74
2023/07/30 03:30:22;;;;;;;29.05;15.18;;;;;;;-144.73;100.00;54557.53;4995737;28;20027;-73
2023/07/30 03:32:47;;;;;;;24.63;15.18;;;;;;;-144.73;100.00;54582.16;4985829;28;20033;-73
2023/07/30 03:35:13;;;;;;;23.67;15.32;;;;;;;-144.73;100.00;54571.91;5033582;28;20043;-74
2023/07/30 03:37:38;;;;;;;29.35;15.55;;;;;;;-144.73;100.00;54551.38;4967189;28;20387;-73
2023/07/30 03:40:04;;;;;;;27.08;15.30;;;;;;;-144.73;100.00;54555.47;4953001;28;20075;-73
2023/07/30 03:42:29;;;;;;;24.52;15.80;;;;;;;-144.73;100.00;54576.00;5036320;28;20043;-74
2023/07/30 03:44:55;;;;;;;24.30;15.40;;;;;;;-144.73;100.00;54547.28;4990592;28;20020;-73
2023/07/30 03:47:20;;;;;;;23.40;15.93;;;;;;;-144.73;100.00;54563.69;4948935;28;20031;-73
2023/07/30 03:49:45;;;;;;;34.20;16.40;;;;;;;-144.73;100.00;54594.47;5012240;28;20023;-74
2023/07/30 03:52:11;;;;;;;35.85;16.23;;;;;;;-144.73;100.00;54545.22;5039325;28;20025;-73
2023/07/30 03:54:36;;;;;;;27.90;17.08;;;;;;;-144.73;100.00;54547.28;4973779;28;20476;-73
2023/07/30 03:57:02;;;;;;;24.48;15.82;;;;;;;-144.73;100.00;54559.59;4993952;28;20025;-73
2023/07/30 03:59:28;;;;;;;31.17;17.35;;;;;;;-144.73;100.00;54547.28;4970367;28;20029;-73
2023/07/30 04:01:54;;;;;;;27.50;17.55;;;;;;;-144.73;100.00;54551.38;4975352;28;20110;-73
2023/07/30 04:04:19;;;;;;;27.38;15.85;;;;;;;-144.73;100.00;54547.28;4975248;28;20102;-73
2023/07/30 04:06:44;;;;;;;32.72;16.92;;;;;;;-144.73;100.00;54567.81;4977437;28;20041;-73
2023/07/30 04:09:10;;;;;;;28.67;16.88;;;;;;;-144.73;100.00;54567.81;4956196;28;20383;-73
2023/07/30 04:11:35;;;;;;;31.25;16.40;;;;;;;-144.73;100.00;54539.06;4959731;28;20051;-74
2023/07/30 04:14:01;;;;;;;24.73;16.65;;;;;;;-144.73;100.00;54539.06;5034239;28;20123;-73
2023/07/30 04:16:26;;;;;;;35.08;16.30;;;;;;;-144.73;100.00;54555.47;4936338;28;20035;-73
2023/07/30 04:18:51;;;;;;;31.17;16.52;;;;;;;-144.73;100.00;54576.00;4974523;28;20021;-73
2023/07/30 04:21:17;;;;;;;26.80;15.32;;;;;;;-144.73;100.00;54584.22;5039285;28;20476;-74
2023/07/30 04:23:42;;;;;;;29.40;15.57;;;;;;;-144.73;100.00;54549.31;4986110;28;20027;-73
2023/07/30 04:26:07;;;;;;;32.45;14.77;;;;;;;-144.73;100.00;54594.47;4945530;28;20038;-72
2023/07/30 04:28:33;;;;;;;27.75;14.88;;;;;;;-144.73;100.00;54567.81;4940188;28;20100;-73
2023/07/30 04:30:58;;;;;;;26.60;13.63;;;;;;;-144.73;100.00;54539.06;4957721;28;20040;-73
2023/07/30 04:33:23;;;;;;;26.13;12.02;;;;;;;-144.73;100.00;54539.06;4941907;28;20055;-73
2023/07/30 04:35:49;;;;;;;37.38;13.93;;;;;;;-144.73;100.00;54604.75;5008112;28;20036;-73
2023/07/30 04:38:14;;;;;;;36.85;13.82;;;;;;;-144.73;100.00;54555.47;4956754;28;20045;-74
2023/07/30 04:40:40;;;;;;;28.08;13.55;;;;;;;-144.73;100.00;54543.16;4935133;28;20030;-73
2023/07/30 04:43:05;;;;;;;28.52;14.05;;;;;;;-144.73;100.00;54604.75;4956483;28;20028;-73
2023/07/30 04:45:30;;;;;;;33.50;13.52;;;;;;;-144.73;100.00;54522.63;4932422;28;20076;-74
2023/07/30 04:47:57;;;;;;;36.03;13.75;;;;;;;-144.73;100.00;54559.59;4933532;28;20019;-73
2023/07/30 04:50:22;;;;;;;26.58;12.73;;;;;;;-144.73;100.00;54576.00;5051048;28;20344;-73
2023/07/30 04:52:47;;;;;;;34.58;13.30;;;;;;;-144.73;100.00;54567.81;4973977;28;20040;-73
2023/07/30 04:55:13;;;;;;;30.05;12.63;;;;;;;-144.73;100.00;54514.44;4950804;28;20019;-73
2023/07/30 04:57:38;;;;;;;22.65;12.50;;;;;;;-144.73;100.00;54547.28;5048480;28;20048;-75
2023/07/30 05:00:04;;;;;;;22.02;12.25;;;;;;;-144.73;100.00;54547.28;4976587;28;20019;-73
2023/07/30 05:02:30;;;;;;;33.75;14.65;;;;;;;-144.73;100.00;54530.84;4977980;28;20029;-73
2023/07/30 05:04:55;;;;;;;31.55;13.13;;;;;;;-144.73;100.00;54567.81;4979553;28;20029;-73
2023/07/30 05:07:20;;;;;;;31.73;13.98;;;;;;;-144.73;100.00;54510.31;4938885;28;20108;-73
2023/07/30 05:09:46;;;;;;;27.95;12.45;;;;;;;-144.73;100.00;54539.06;4954568;28;20107;-73
2023/07/30 05:12:11;;;;;;;34.28;15.38;;;;;;;-144.73;100.00;54578.06;4953878;28;20037;-73
2023/07/30 05:14:36;;;;;;;31.27;12.93;;;;;;;-144.73;100.00;54586.28;4975562;28;20030;-73
2023/07/30 05:17:02;;;;;;;29.67;13.93;;;;;;;-144.73;100.00;54588.31;4935500;28;20046;-73
2023/07/30 05:19:28;;;;;;;37.30;13.50;;;;;;;-144.73;100.00;54563.69;4962098;28;20055;-73
2023/07/30 05:21:53;;;;;;;34.33;14.13;;;;;;;-144.73;100.00;54539.06;4946959;28;20430;-73
2023/07/30 05:24:19;;;;;;;27.27;12.75;;;;;;;-144.73;100.00;54555.47;4946908;28;20019;-73
2023/07/30 05:26:44;;;;;;;27.77;11.85;;;;;;;-144.73;100.00;54510.31;4932547;28;20035;-73
2023/07/30 05:29:10;;;;;;;27.02;11.35;;;;;;;-144.73;100.00;54543.16;4933383;28;20022;-73
2023/07/30 05:31:35;;;;;;;26.00;10.60;;;;;;;-144.73;100.00;54580.13;4932438;28;20046;-74
2023/07/30 05:34:00;;;;;;;30.92;11.70;;;;;;;-144.73;100.00;54551.38;4950176;28;20027;-73
2023/07/30 05:36:26;;;;;;;25.40;11.68;;;;;;;-144.73;100.00;54563.69;4949848;28;20046;-73
2023/07/30 05:38:51;;;;;;;32.83;10.30;;;;;;;-144.73;100.00;54588.31;4999223;28;20040;-73
2023/07/30 05:41:16;;;;;;;24.13;10.55;;;;;;;-144.73;100.00;54543.16;5044461;28;20042;-73
2023/07/30 05:43:42;;;;;;;24.45;11.02;;;;;;;-144.73;100.00;54563.69;4949314;28;20042;-74
2023/07/30 05:46:08;;;;;;;28.48;10.13;;;;;;;-144.73;100.00;54547.28;5007168;28;20029;-73
2023/07/30 05:48:33;;;;;;;33.20;11.02;;;;;;;-144.73;100.00;54539.06;4954188;28;20104;-74
2023/07/30 05:50:59;;;;;;;27.05;9.70;;;;;;;-144.73;100.00;54551.38;5003889;28;20097;-72
2023/07/30 05:53:24;;;;;;;27.63;10.07;;;;;;;-144.73;100.00;54539.06;4955200;28;20106;-72
2023/07/30 05:55:50;;;;;;;41.22;10.75;;;;;;;-144.73;100.00;54576.00;4986931;28;20063;-74
2023/07/30 05:58:15;;;;;;;29.92;11.18;;;;;;;-144.73;100.00;54559.59;4965208;28;20031;-73
2023/07/30 06:00:41;;;;;;;29.23;9.80;;;;;;;-144.73;100.00;54551.38;4954645;28;20079;-72
2023/07/30 06:03:08;;;;;;;36.47;11.73;;;;;;;-144.73;100.00;54539.06;4945616;28;20311;-74
2023/07/30 06:05:39;;;;;;;28.00;10.40;;;;;;;-144.73;100.00;54547.28;4949416;28;20042;-74
2023/07/30 06:08:04;;;;;;;21.33;9.50;;;;;;;-144.73;100.00;54567.81;4949672;28;20074;-72
2023/07/30 06:10:30;;;;;;;29.20;11.13;;;;;;;-144.73;100.00;54559.59;4959959;28;20169;-73
2023/07/30 06:12:55;;;;;;;27.55;10.88;;;;;;;-144.73;100.00;54547.28;5000307;28;20025;-73
2023/07/30 06:15:20;;;;;;;27.95;11.32;;;;;;;-144.73;100.00;54526.75;4951129;28;20120;-73
2023/07/30 06:17:46;;;;;;;31.02;9.98;;;;;;;-144.73;100.00;54539.06;4965923;28;20514;-74
2023/07/30 06:20:11;;;;;;;25.25;10.77;;;;;;;-144.73;100.00;54571.91;4935708;28;20095;-73
2023/07/30 06:22:37;;;;;;;29.77;9.85;;;;;;;-144.73;100.00;54563.69;4979711;28;20037;-73
2023/07/30 06:25:02;;;;;;;34.10;11.35;;;;;;;-144.73;100.00;54576.00;4989898;28;20035;-73
2023/07/30 06:27:28;;;;;;;37.78;10.93;;;;;;;-144.73;100.00;54541.13;4934919;28;20089;-73
2023/07/30 06:29:53;;;;;;;26.42;10.30;;;;;;;-144.73;100.00;54555.47;5001001;28;20029;-73
2023/07/30 06:32:18;;;;;;;32.22;9.50;;;;;;;-144.73;100.00;54547.28;4949078;28;20029;-74
2023/07/30 06:34:44;;;;;;;35.40;10.93;;;;;;;-144.73;100.00;54551.38;4964477;28;20023;-73
2023/07/30 06:37:09;;;;;;;28.55;9.48;;;;;;;-144.73;100.00;54557.53;4958042;28;20130;-74
2023/07/30 06:39:34;;;;;;;33.00;10.05;;;;;;;-144.73;100.00;54526.75;5039975;28;20025;-74
2023/07/30 06:42:00;;;;;;;28.98;10.30;;;;;;;-144.73;100.00;54555.47;4954973;28;20035;-74
2023/07/30 06:44:25;;;;;;;45.05;11.63;;;;;;;-144.73;100.00;54549.31;5009805;28;20029;-74
2023/07/30 06:46:51;;;;;;;37.42;10.23;;;;;;;-144.73;100.00;54547.28;4998336;28;20125;-74
2023/07/30 06:49:16;;;;;;;36.97;11.27;;;;;;;-144.73;100.00;54576.00;4975924;28;20435;-74
2023/07/30 06:51:41;;;;;;;44.22;10.48;;;;;;;-144.73;100.00;54559.59;4984166;28;20036;-73
2023/07/30 06:54:07;;;;;;;40.13;11.00;;;;;;;-144.73;100.00;54555.47;4987661;28;20059;-73
2023/07/30 06:56:32;;;;;;;33.30;12.50;;;;;;;-144.73;100.00;54481.59;4959817;28;20037;-74
2023/07/30 06:58:57;;;;;;;36.95;10.25;;;;;;;-144.73;100.00;54518.53;4964286;28;20028;-74
2023/07/30 07:01:23;;;;;;;36.67;12.07;;;;;;;-144.73;100.00;54551.38;4975165;28;20043;-74
2023/07/30 07:03:48;;;;;;;46.47;12.43;;;;;;;-144.73;100.00;54526.75;4960170;28;20039;-74
2023/07/30 07:06:14;;;;;;;41.78;11.70;;;;;;;-144.73;100.00;54539.06;4940980;28;20379;-73
2023/07/30 07:08:39;;;;;;;35.28;10.90;;;;;;;-144.73;100.00;54526.75;4940437;28;20028;-73
2023/07/30 07:11:04;;;;;;;36.80;12.60;;;;;;;-144.73;100.00;54539.06;4989393;28;20096;-74
2023/07/30 07:13:30;;;;;;;39.20;12.27;;;;;;;-144.73;100.00;54539.06;5011735;28;20053;-74
2023/07/30 07:15:55;;;;;;;33.50;13.65;;;;;;;-144.73;100.00;54551.38;4977392;28;20036;-74
2023/07/30 07:18:21;;;;;;;38.17;14.32;;;;;;;-144.73;100.00;54539.06;5003469;28;20021;-74
2023/07/30 07:20:47;;;;;;;42.05;12.88;;;;;;;-144.73;100.00;54543.16;5021272;28;20032;-74
2023/07/30 07:23:12;;;;;;;40.05;13.85;;;;;;;-144.73;100.00;54596.53;5046266;28;20017;-74
2023/07/30 07:25:37;;;;;;;39.70;14.02;;;;;;;-144.73;100.00;54567.81;4966117;28;20061;-74
2023/07/30 07:28:03;;;;;;;44.35;14.38;;;;;;;-144.73;100.00;54543.16;4983492;28;20017;-74
2023/07/30 07:30:28;;;;;;;46.22;16.70;;;;;;;-144.73;100.00;54518.53;4981070;28;20027;-74
2023/07/30 07:32:55;;;;;;;46.60;15.55;;;;;;;-144.73;100.00;54539.06;4984988;28;20063;-74
2023/07/30 07:35:21;;;;;;;42.00;14.50;;;;;;;-144.73;100.00;54604.75;5012384;28;20020;-74
2023/07/30 07:37:46;;;;;;;46.45;13.93;;;;;;;-144.73;100.00;54559.59;5057110;28;20041;-74
2023/07/30 07:40:14;;;;;;;51.85;14.02;;;;;;;-144.73;100.00;54543.16;4946934;28;20032;-74
2023/07/30 07:42:40;;;;;;;39.83;13.18;;;;;;;-144.73;100.00;54559.59;4944588;28;20039;-74
2023/07/30 07:45:06;;;;;;;41.08;12.38;;;;;;;-144.73;100.00;54530.84;4972139;28;20466;-75
2023/07/30 07:47:32;;;;;;;56.58;12.85;;;;;;;-144.73;100.00;54539.06;4944457;28;20043;-74
2023/07/30 07:49:57;;;;;;;51.38;13.93;;;;;;;-144.73;100.00;54512.38;5006724;28;20088;-74
2023/07/30 07:52:23;;;;;;;39.75;10.60;;;;;;;-144.73;100.00;54510.31;4942747;28;20031;-74
2023/07/30 07:54:48;;;;;;;31.42;10.45;;;;;;;-144.73;100.00;54520.59;5008891;28;20036;-74
2023/07/30 07:57:13;;;;;;;43.00;11.32;;;;;;;-144.73;100.00;54530.84;4995176;28;20035;-74
2023/07/30 07:59:39;;;;;;;45.58;12.50;;;;;;;-144.73;100.00;54551.38;5005171;28;20037;-74
2023/07/30 08:02:05;;;;;;;39.35;12.45;;;;;;;-144.73;100.00;54526.75;4955188;28;20038;-74
2023/07/30 08:04:30;;;;;;;41.20;10.57;;;;;;;-144.73;100.00;54508.28;5008160;28;20118;-74
2023/07/30 08:06:59;;;;;;;41.35;11.10;;;;;;;-144.73;100.00;54571.91;5008994;28;20029;-74
2023/07/30 08:09:25;;;;;;;32.25;11.85;;;;;;;-144.73;100.00;54481.59;5054594;28;20055;-74
2023/07/30 08:11:50;;;;;;;47.47;11.75;;;;;;;-144.73;100.00;54487.75;5037431;28;20032;-74
2023/07/30 08:14:15;;;;;;;37.08;9.70;;;;;;;-144.73;100.00;54516.47;5030922;28;20023;-74
2023/07/30 08:16:41;;;;;;;31.23;9.90;;;;;;;-144.73;100.00;54530.84;4954903;28;20066;-74
2023/07/30 08:19:06;;;;;;;40.13;11.45;;;;;;;-144.73;100.00;54510.31;4984285;28;20044;-74
2023/07/30 08:21:32;;;;;;;33.42;8.85;;;;;;;-144.73;100.00;54547.28;4990043;28;20037;-74
2023/07/30 08:23:57;;;;;;;32.33;9.55;;;;;;;-144.73;100.00;54514.44;5032014;28;20071;-74
2023/07/30 08:26:23;;;;;;;33.90;8.65;;;;;;;-144.73;100.00;54500.06;4939181;28;20067;-72
2023/07/30 08:28:51;;;;;;;39.65;9.48;;;;;;;-144.73;100.00;54502.13;4976106;28;20034;-73
2023/07/30 08:31:16;;;;;;;40.15;9.43;;;;;;;-144.73;100.00;54526.75;4980618;28;20169;-73
2023/07/30 08:33:42;;;;;;;30.33;8.88;;;;;;;-144.73;100.00;54545.22;4947635;28;20121;-74
2023/07/30 08:36:07;;;;;;;33.47;8.45;;;;;;;-144.73;100.00;54539.06;4946243;28;20118;-73
2023/07/30 08:38:32;;;;;;;21.17;6.35;;;;;;;-144.73;100.00;54502.13;4946174;28;20493;-74
2023/07/30 08:40:58;;;;;;;18.92;6.22;;;;;;;-144.73;100.00;54539.06;4973325;28;20211;-74
2023/07/30 08:43:23;;;;;;;39.35;6.30;;;;;;;-144.73;100.00;54563.69;4949884;28;20080;-74
2023/07/30 08:45:49;;;;;;;26.88;6.40;;;;;;;-144.73;100.00;54493.91;5035183;28;20027;-74
2023/07/30 08:48:14;;;;;;;17.80;5.43;;;;;;;-144.73;100.00;54465.16;4949509;28;20459;-73
2023/07/30 08:50:40;;;;;;;27.15;5.90;;;;;;;-144.73;100.00;54465.16;4946611;28;20023;-74
2023/07/30 08:53:07;;;;;;;25.25;5.40;;;;;;;-144.73;100.00;54518.53;4950904;28;20015;-73
2023/07/30 08:55:34;;;;;;;25.50;5.95;;;;;;;-144.73;100.00;54489.81;4935723;28;20138;-72
2023/07/30 08:58:03;;;;;;;21.08;5.97;;;;;;;-144.73;100.00;54493.91;5034755;28;20131;-72
2023/07/30 09:00:33;;;;;;;25.42;5.20;;;;;;;-144.73;100.00;54530.84;5034809;28;20043;-72
2023/07/30 09:03:00;;;;;;;24.55;5.57;;;;;;;-144.73;100.00;54539.06;4966414;28;20051;-74
2023/07/30 09:05:29;;;;;;;25.27;5.63;;;;;;;-144.73;100.00;54522.63;5035050;28;20026;-72
2023/07/30 09:07:55;;;;;;;24.40;5.43;;;;;;;-144.73;100.00;54530.84;4966282;28;20085;-73
2023/07/30 09:10:20;;;;;;;28.83;6.43;;;;;;;-144.73;100.00;54539.06;4934941;28;20062;-72
2023/07/30 09:12:52;;;;;;;38.15;6.18;;;;;;;-144.73;100.00;54539.06;5034253;28;20043;-71
2023/07/30 09:15:18;;;;;;;21.45;4.47;;;;;;;-144.73;100.00;54526.75;4966551;28;20027;-72
2023/07/30 09:17:45;;;;;;;27.30;5.90;;;;;;;-144.73;100.00;54506.22;4934271;28;20043;-72
2023/07/30 09:20:13;;;;;;;24.40;6.10;;;;;;;-144.73;100.00;54477.47;4934847;28;20019;-72
2023/07/30 09:22:40;;;;;;;26.95;4.47;;;;;;;-144.73;100.00;54504.16;4934267;28;20051;-73
2023/07/30 09:25:06;;;;;;;21.45;5.05;;;;;;;-144.73;100.00;54510.31;5034252;28;20027;-73
2023/07/30 09:27:32;;;;;;;27.02;5.22;;;;;;;-144.73;100.00;54549.31;4965568;28;20039;-72
2023/07/30 09:29:59;;;;;;;21.48;5.20;;;;;;;-144.73;100.00;54502.13;4934278;28;20034;-73
2023/07/30 09:32:30;;;;;;;19.00;4.28;;;;;;;-144.73;100.00;54530.84;5033927;28;20042;-72
2023/07/30 09:35:05;;;;;;;25.20;5.20;;;;;;;-144.73;100.00;54498.00;4934440;28;20027;-72
2023/07/30 09:37:30;;;;;;;15.95;4.32;;;;;;;-144.73;100.00;54495.97;4965629;28;20035;-73
2023/07/30 09:39:57;;;;;;;26.40;6.00;;;;;;;-144.73;100.00;54522.63;4934276;28;20086;-72
2023/07/30 09:42:27;;;;;;;20.27;4.63;;;;;;;-144.73;100.00;54498.00;5033606;28;20505;-72
2023/07/30 09:44:52;;;;;;;22.85;5.80;;;;;;;-144.73;100.00;54489.81;5034366;28;20026;-72
2023/07/30 09:47:18;;;;;;;23.60;4.63;;;;;;;-144.73;100.00;54446.69;4932698;28;20055;-72
2023/07/30 09:49:44;;;;;;;21.93;4.57;;;;;;;-144.73;100.00;54518.53;5033115;28;20026;-75
2023/07/30 09:52:11;;;;;;;21.10;5.15;;;;;;;-144.73;100.00;54514.44;4933188;28;20280;-72
2023/07/30 09:54:36;;;;;;;20.58;5.18;;;;;;;-144.73;100.00;54495.97;4928734;28;20091;-72
2023/07/30 09:57:03;;;;;;;19.27;4.50;;;;;;;-144.73;100.00;54514.44;4963234;28;20070;-72
2023/07/30 09:59:29;;;;;;;20.77;4.28;;;;;;;-144.73;100.00;54504.16;5030397;28;20054;-73
2023/07/30 10:01:56;;;;;;;16.48;4.57;;;;;;;-144.73;100.00;54510.31;4930381;28;20074;-72
2023/07/30 10:04:25;;;;;;;20.10;4.85;;;;;;;-144.73;100.00;54498.00;4931583;28;20031;-71
2023/07/30 10:06:53;;;;;;;31.77;5.18;;;;;;;-144.73;100.00;54516.47;5029873;28;20152;-72
2023/07/30 10:09:21;;;;;;;20.50;4.63;;;;;;;-144.73;100.00;54489.81;4963784;28;20110;-72
2023/07/30 10:11:49;;;;;;;24.20;5.18;;;;;;;-144.73;100.00;54543.16;5032429;28;20039;-73
2023/07/30 10:14:18;;;;;;;18.20;4.63;;;;;;;-144.73;100.00;54524.69;5034643;28;20122;-74
2023/07/30 10:16:54;;;;;;;17.48;4.70;;;;;;;-144.73;100.00;54498.00;4950361;28;20051;-73
2023/07/30 10:19:27;;;;;;;21.20;4.35;;;;;;;-144.73;100.00;54514.44;4938828;28;20031;-73
2023/07/30 10:22:13;;;;;;;19.55;4.07;;;;;;;-144.73;100.00;54477.47;4956873;28;20106;-74
2023/07/30 10:24:39;;;;;;;19.08;4.93;;;;;;;-144.73;100.00;54514.44;5034409;28;20021;-73
2023/07/30 10:27:09;;;;;;;19.23;4.68;;;;;;;-144.73;100.00;54489.81;4940107;28;20062;-72
2023/07/30 10:29:35;;;;;;;18.63;4.85;;;;;;;-144.73;100.00;54502.13;4944234;28;20024;-74
2023/07/30 10:32:02;;;;;;;32.85;4.57;;;;;;;-144.73;100.00;54508.28;4945339;28;20062;-74
2023/07/30 10:34:45;;;;;;;28.88;5.03;;;;;;;-144.73;100.00;54465.16;4948434;28;20030;-72
2023/07/30 10:37:10;;;;;;;21.05;4.30;;;;;;;-144.73;100.00;54489.81;5007602;28;20445;-73
2023/07/30 10:39:36;;;;;;;19.83;4.20;;;;;;;-144.73;100.00;54491.84;4943499;28;20126;-76
2023/07/30 10:42:01;;;;;;;22.50;4.75;;;;;;;-144.73;100.00;54473.38;4975206;28;20118;-73
2023/07/30 10:44:30;;;;;;;24.05;5.72;;;;;;;-144.73;100.00;54493.91;4942775;28;20130;-74
2023/07/30 10:46:57;;;;;;;22.63;5.25;;;;;;;-144.73;100.00;54498.00;4941318;28;20127;-72
2023/07/30 10:49:23;;;;;;;23.90;4.70;;;;;;;-144.73;100.00;54506.22;4962901;28;20050;-73
2023/07/30 10:51:48;;;;;;;22.52;4.30;;;;;;;-144.73;100.00;54541.13;4945579;28;20039;-73